CDT,Max TemperatureF,Mean TemperatureF,Min TemperatureF,Max Dew PointF,MeanDew PointF,Min DewpointF,Max Humidity, Mean Humidity, Min Humidity, Max Sea Level PressureIn, Mean Sea Level PressureIn, Min Sea Level PressureIn, Max VisibilityMiles, Mean VisibilityMiles, Min VisibilityMiles, Max Wind SpeedMPH, Mean Wind SpeedMPH, Max Gust SpeedMPH,PrecipitationIn, CloudCover, Events, WindDirDegrees
2012-5-1,90,76,61,64,60,56,88,67,33,29.85,29.72,29.59,10,10,10,30,18,40,0.00,0,Thunderstorm,169
2012-5-2,93,80,66,66,64,61,87,64,36,29.73,29.68,29.65,10,10,10,26,22,36,0.00,0,,173
2012-5-3,95,80,66,66,62,50,90,59,22,29.80,29.75,29.71,10,10,8,22,18,30,0.00,0,,179
2012-5-4,97,83,69,65,59,44,84,53,16,29.83,29.76,29.69,10,10,9,22,14,30,0.00,0,,182
2012-5-5,100,82,63,69,58,34,87,53,11,29.77,29.70,29.63,10,10,9,24,17,33,0.00,0,,180
2012-5-6,91,78,66,68,59,38,81,58,22,29.90,29.75,29.66,10,10,9,24,15,34,0.00,0,,246
2012-5-7,69,64,59,59,51,41,76,64,48,30.07,29.99,29.88,10,10,10,25,19,33,0.00,7,,8
2012-5-8,72,62,54,44,39,35,64,45,27,30.15,30.09,30.04,10,10,10,18,11,24,0.00,6,,8
2012-5-9,82,64,46,43,37,31,77,42,17,30.11,30.04,29.94,10,10,10,9,6,16,0.00,0,,222
2012-5-10,82,68,55,47,41,36,60,39,21,29.95,29.89,29.83,10,10,10,20,12,25,0.00,0,,177
2012-5-11,64,60,57,58,55,46,100,90,50,30.12,29.99,29.85,10,6,2,26,10,33,0.68,8,Rain,56
2012-5-12,73,63,55,58,54,50,97,78,52,30.27,30.20,30.13,10,9,6,16,12,21,0.03,6,Rain,22
2012-5-13,78,64,53,54,51,48,93,66,38,30.29,30.21,30.14,10,10,10,13,6,17,0.00,3,,25
2012-5-14,79,66,57,57,53,46,93,65,35,30.18,30.13,30.06,10,10,10,9,3,,0.00,1,,142
2012-5-15,89,72,55,55,47,37,83,48,16,30.10,30.04,29.97,10,10,10,10,6,,0.00,1,,275
2012-5-16,90,70,52,54,46,34,89,46,16,30.05,30.01,29.96,10,10,10,14,7,21,0.00,0,,119
2012-5-17,93,76,60,53,47,39,72,40,16,29.98,29.88,29.75,10,10,10,21,12,31,0.00,0,,173
2012-5-18,91,77,64,54,51,48,63,40,24,29.80,29.73,29.66,10,10,10,33,21,45,0.00,0,,170
2012-5-19,91,76,60,63,59,53,94,67,34,30.00,29.82,29.68,10,8,1,26,20,37,1.23,3,Rain-Thunderstorm,148
2012-5-20,69,63,57,63,58,55,100,87,70,30.25,30.14,29.96,10,9,2,16,10,20,0.06,7,Rain-Thunderstorm,25
2012-5-21,82,72,62,61,59,56,96,68,42,30.24,30.17,30.06,10,10,7,15,5,16,0.00,4,Rain-Thunderstorm,92
2012-5-22,91,77,63,61,58,53,93,58,30,30.08,29.90,29.69,10,10,7,21,12,28,0.10,1,Rain-Thunderstorm,163
2012-5-23,96,81,66,64,58,55,70,46,26,29.67,29.48,29.35,10,10,10,30,22,43,0.00,0,,171
2012-5-24,91,76,64,65,56,49,78,49,28,29.61,29.49,29.33,10,10,10,25,15,32,0.00,0,,222
2012-5-25,96,84,72,70,67,57,88,62,38,29.82,29.70,29.58,10,10,10,29,18,37,0.00,1,Thunderstorm,159
2012-5-26,97,84,73,68,63,52,76,54,26,29.88,29.82,29.76,10,10,4,28,20,37,0.00,0,,166
2012-5-27,91,82,72,63,61,60,73,54,34,29.83,29.76,29.68,10,10,10,29,24,38,0.00,0,,170
2012-5-28,95,82,69,62,50,35,76,40,13,29.84,29.78,29.72,10,10,10,21,12,29,0.00,0,,53
2012-5-29,99,80,63,65,60,50,90,56,20,29.89,29.79,29.69,10,10,10,22,11,30,0.00,0,,178
2012-5-30,88,76,63,66,59,46,87,60,32,29.91,29.77,29.64,10,10,10,29,16,40,0.07,3,Rain-Thunderstorm,142
2012-5-31,80,71,62,58,52,43,82,57,28,30.02,29.92,29.79,10,10,10,29,15,39,0.00,2,Rain-Thunderstorm,18